createdAt,value
2024-04-08T00:00:54.314Z,2.50
2024-04-08T00:03:42.174Z,2.60
2024-04-08T00:06:12.819Z,2.90
2024-04-08T00:08:41.312Z,2.40
2024-04-08T00:11:09.281Z,2.60
2024-04-08T00:13:38.795Z,2.40
2024-04-08T00:16:07.188Z,2.20
2024-04-08T00:18:35.338Z,2.80
2024-04-08T00:21:04.169Z,2.20
2024-04-08T00:23:35.570Z,1.90
2024-04-08T00:26:04.345Z,2.60
2024-04-08T00:28:32.524Z,2.20
2024-04-08T00:31:10.018Z,1.80
2024-04-08T00:33:38.208Z,1.90
2024-04-08T00:36:06.482Z,2.20
2024-04-08T00:38:34.379Z,2.20
2024-04-08T00:41:03.929Z,3.20
2024-04-08T00:43:32.004Z,3.30
2024-04-08T00:45:59.980Z,3.00
2024-04-08T00:48:28.803Z,3.20
2024-04-08T00:50:56.979Z,2.10
2024-04-08T00:53:24.976Z,2.20
2024-04-08T00:55:53.183Z,2.50
2024-04-08T00:58:21.099Z,2.20
2024-04-08T01:00:49.135Z,2.00
2024-04-08T01:03:17.429Z,1.90
2024-04-08T01:05:49.039Z,2.00
2024-04-08T01:08:17.019Z,2.10
2024-04-08T01:10:44.966Z,2.50
2024-04-08T01:13:12.853Z,2.20
2024-04-08T01:15:40.831Z,1.70
2024-04-08T01:18:08.752Z,2.10
2024-04-08T01:20:38.042Z,2.60
2024-04-08T01:23:05.951Z,2.20
2024-04-08T01:25:33.821Z,1.90
2024-04-08T01:28:03.274Z,2.60
2024-04-08T01:30:31.293Z,1.80
2024-04-08T01:32:59.148Z,2.10
2024-04-08T01:35:27.090Z,2.50
2024-04-08T01:37:55.050Z,3.00
2024-04-08T01:40:23.016Z,2.30
2024-04-08T01:42:50.896Z,3.20
2024-04-08T01:45:18.790Z,2.30
2024-04-08T01:47:46.818Z,2.00
2024-04-08T01:50:14.862Z,2.40
2024-04-08T01:52:42.777Z,2.40
2024-04-08T01:55:10.713Z,2.80
2024-04-08T01:57:38.613Z,3.20
2024-04-08T02:00:08.925Z,3.90
2024-04-08T02:05:07.912Z,2.70
2024-04-08T02:07:36.126Z,2.90
2024-04-08T02:10:04.125Z,3.00
2024-04-08T02:12:32.046Z,3.10
2024-04-08T02:14:59.941Z,2.60
2024-04-08T02:17:27.936Z,3.30
2024-04-08T02:19:55.997Z,2.80
2024-04-08T02:22:23.956Z,3.00
2024-04-08T02:24:51.931Z,3.10
2024-04-08T02:27:19.843Z,4.00
2024-04-08T02:29:47.820Z,3.40
2024-04-08T02:32:15.789Z,3.20
2024-04-08T02:34:43.739Z,4.00
2024-04-08T02:37:11.652Z,3.50
2024-04-08T02:39:39.688Z,3.80
2024-04-08T02:42:07.655Z,4.10
2024-04-08T02:44:35.733Z,3.60
2024-04-08T02:47:04.083Z,4.80
2024-04-08T02:49:33.944Z,4.40
2024-04-08T02:52:01.887Z,4.90
2024-04-08T02:54:29.827Z,4.70
2024-04-08T02:56:57.711Z,4.40
2024-04-08T02:59:26.408Z,4.30
2024-04-08T03:01:54.323Z,4.70
2024-04-08T03:04:22.317Z,4.40
2024-04-08T03:06:50.207Z,4.90
2024-04-08T03:09:18.845Z,4.70
2024-04-08T03:11:46.904Z,4.60
2024-04-08T03:14:14.964Z,5.50
2024-04-08T03:16:44.929Z,5.30
2024-04-08T03:19:12.853Z,5.10
2024-04-08T03:21:40.880Z,5.20
2024-04-08T03:24:08.808Z,4.40
2024-04-08T03:26:36.704Z,4.60
2024-04-08T03:29:04.621Z,4.30
2024-04-08T03:31:32.658Z,4.70
2024-04-08T03:34:00.597Z,4.10
2024-04-08T03:36:28.483Z,4.50
2024-04-08T03:38:56.500Z,5.30
2024-04-08T03:41:24.405Z,4.20
2024-04-08T03:43:52.314Z,4.80
2024-04-08T03:46:20.300Z,4.80
2024-04-08T03:48:48.202Z,4.50
2024-04-08T03:51:17.536Z,5.30
2024-04-08T03:53:46.980Z,5.80
2024-04-08T03:56:14.891Z,5.20
2024-04-08T03:58:42.883Z,5.20
2024-04-08T04:01:11.070Z,4.90
2024-04-08T04:03:39.139Z,4.20
2024-04-08T04:06:07.338Z,4.60
2024-04-08T04:08:36.952Z,4.40
2024-04-08T04:11:05.288Z,3.60
2024-04-08T04:13:33.253Z,4.60
2024-04-08T04:16:04.419Z,4.90
2024-04-08T04:18:33.192Z,5.20
2024-04-08T04:21:01.118Z,5.00
2024-04-08T04:23:29.032Z,5.00
2024-04-08T04:25:59.334Z,4.60
2024-04-08T04:28:28.225Z,4.80
2024-04-08T04:30:56.622Z,6.10
2024-04-08T04:33:24.541Z,5.00
2024-04-08T04:35:59.124Z,4.80
2024-04-08T04:38:27.348Z,4.10
2024-04-08T04:41:02.339Z,4.50
2024-04-08T04:43:30.716Z,6.20
2024-04-08T04:45:58.807Z,3.50
2024-04-08T04:48:26.892Z,4.50
2024-04-08T04:50:54.905Z,4.40
2024-04-08T04:53:22.972Z,4.70
2024-04-08T04:55:54.638Z,3.50
2024-04-08T04:58:22.700Z,3.90
2024-04-08T05:00:51.103Z,3.70
2024-04-08T05:03:20.126Z,3.60
2024-04-08T05:05:55.936Z,3.60
2024-04-08T05:08:24.577Z,3.80
2024-04-08T05:10:52.705Z,4.00
2024-04-08T05:13:21.172Z,3.30
2024-04-08T05:15:59.209Z,4.00
2024-04-08T05:18:27.448Z,4.30
2024-04-08T05:20:56.387Z,4.00
2024-04-08T05:23:24.538Z,4.50
2024-04-08T05:25:52.675Z,4.40
2024-04-08T05:28:21.529Z,4.00
2024-04-08T05:30:49.579Z,4.50
2024-04-08T05:33:17.743Z,4.20
2024-04-08T05:35:46.255Z,3.90
2024-04-08T05:38:14.956Z,4.30
2024-04-08T05:40:42.963Z,4.00
2024-04-08T05:43:20.049Z,3.20
2024-04-08T05:45:48.766Z,3.70
2024-04-08T05:48:16.662Z,3.40
2024-04-08T05:50:47.192Z,3.10
2024-04-08T05:53:15.429Z,3.10
2024-04-08T05:55:43.508Z,3.20
2024-04-08T05:58:11.608Z,3.80
2024-04-08T06:00:39.864Z,3.40
2024-04-08T06:03:07.977Z,2.20
2024-04-08T06:05:36.062Z,2.10
2024-04-08T06:08:04.363Z,2.60
2024-04-08T06:10:32.450Z,4.10
2024-04-08T06:13:01.020Z,5.10
2024-04-08T06:15:29.705Z,5.30
2024-04-08T06:17:58.015Z,6.40
2024-04-08T06:20:26.165Z,6.50
2024-04-08T06:22:54.166Z,8.30
2024-04-08T06:25:22.127Z,7.70
2024-04-08T06:27:50.210Z,8.60
2024-04-08T06:30:18.231Z,7.70
2024-04-08T06:32:50.264Z,9.10
2024-04-08T06:35:18.408Z,7.80
2024-04-08T06:37:46.601Z,7.50
2024-04-08T06:40:14.634Z,6.70
2024-04-08T06:42:42.638Z,7.90
2024-04-08T06:45:10.649Z,6.80
2024-04-08T06:47:38.909Z,3.80
2024-04-08T06:50:07.973Z,3.50
2024-04-08T06:52:35.947Z,3.70
2024-04-08T06:55:04.081Z,2.90
2024-04-08T06:57:32.100Z,3.30
2024-04-08T07:00:00.093Z,3.60
2024-04-08T07:02:28.300Z,3.20
2024-04-08T07:04:56.240Z,2.60
2024-04-08T07:07:24.194Z,2.70
2024-04-08T07:09:52.254Z,1.70
2024-04-08T07:12:20.510Z,2.70
2024-04-08T07:14:52.393Z,2.60
2024-04-08T07:17:22.982Z,3.00
2024-04-08T07:19:50.912Z,2.30
2024-04-08T07:22:20.326Z,1.90
2024-04-08T07:24:54.069Z,2.80
2024-04-08T07:27:24.567Z,2.00
2024-04-08T07:29:52.531Z,2.50
2024-04-08T07:32:20.825Z,2.10
2024-04-08T07:34:48.971Z,1.80
2024-04-08T07:37:16.998Z,1.70
2024-04-08T07:39:44.957Z,1.20
2024-04-08T07:42:13.673Z,1.70
2024-04-08T07:44:41.983Z,1.50
2024-04-08T07:47:10.307Z,1.50
2024-04-08T07:49:40.975Z,1.80
2024-04-08T07:52:10.580Z,1.40
2024-04-08T07:54:40.202Z,1.70
2024-04-08T07:57:10.325Z,1.20
2024-04-08T07:59:42.468Z,1.60
2024-04-08T08:02:13.136Z,1.30
2024-04-08T08:04:53.016Z,1.60
2024-04-08T08:07:21.420Z,1.60
2024-04-08T08:09:50.082Z,1.60
2024-04-08T08:12:23.775Z,1.50
2024-04-08T08:14:51.779Z,1.20
2024-04-08T08:17:19.786Z,1.80
2024-04-08T08:19:48.485Z,1.60
2024-04-08T08:22:19.164Z,1.50
2024-04-08T08:24:47.440Z,1.70
2024-04-08T08:27:20.018Z,2.40
2024-04-08T08:34:16.534Z,2.40
2024-04-08T08:36:47.024Z,1.60
2024-04-08T08:39:16.384Z,1.90
2024-04-08T08:41:44.522Z,1.80
2024-04-08T08:44:14.979Z,1.70
2024-04-08T08:46:44.032Z,1.60
2024-04-08T08:49:12.016Z,1.30
2024-04-08T08:51:40.863Z,1.30
2024-04-08T08:54:09.079Z,1.80
2024-04-08T08:56:37.079Z,1.20
2024-04-08T08:59:05.274Z,1.30
2024-04-08T09:01:33.223Z,1.40
2024-04-08T09:04:07.736Z,1.30
2024-04-08T09:06:37.990Z,1.70
2024-04-08T09:09:06.525Z,1.30
2024-04-08T09:11:35.007Z,1.20
2024-04-08T09:14:07.166Z,1.60
2024-04-08T09:16:35.120Z,1.40
2024-04-08T09:19:03.992Z,1.10
2024-04-08T09:21:32.089Z,1.20
2024-04-08T09:24:09.180Z,1.70
2024-04-08T09:26:37.454Z,1.40
2024-04-08T09:29:05.493Z,1.40
2024-04-08T09:31:33.474Z,1.10
2024-04-08T09:34:01.598Z,1.40
2024-04-08T09:36:29.784Z,1.20
2024-04-08T09:38:57.802Z,1.90
2024-04-08T09:41:25.870Z,1.60
2024-04-08T09:43:53.808Z,1.30
2024-04-08T09:46:21.759Z,1.50
2024-04-08T09:48:53.523Z,1.60
2024-04-08T09:51:21.721Z,0.90
2024-04-08T09:53:49.725Z,1.10
2024-04-08T09:56:20.694Z,1.30
2024-04-08T09:59:06.609Z,1.40
2024-04-08T10:01:34.640Z,0.90
2024-04-08T10:04:03.535Z,1.00
2024-04-08T10:06:31.566Z,1.10
2024-04-08T10:08:59.821Z,1.50
2024-04-08T10:11:27.972Z,1.20
2024-04-08T10:13:56.093Z,0.80
2024-04-08T10:16:24.184Z,1.40
2024-04-08T10:18:58.100Z,1.20
2024-04-08T10:21:29.448Z,1.90
2024-04-08T10:23:59.448Z,1.50
2024-04-08T10:26:27.937Z,2.70
2024-04-08T10:28:56.012Z,1.00
2024-04-08T10:31:28.906Z,1.70
2024-04-08T10:33:57.532Z,1.70
2024-04-08T10:36:25.528Z,0.80
2024-04-08T10:38:53.623Z,0.80
2024-04-08T10:41:21.584Z,1.40
2024-04-08T10:43:49.647Z,1.60
2024-04-08T10:46:19.951Z,0.90
2024-04-08T10:48:47.968Z,1.10
2024-04-08T10:51:17.753Z,1.20
2024-04-08T10:53:45.918Z,2.20
2024-04-08T10:56:13.969Z,1.30
2024-04-08T10:58:42.038Z,1.20
2024-04-08T11:01:10.182Z,1.00
2024-04-08T11:03:38.717Z,1.20
2024-04-08T11:06:07.102Z,1.00
2024-04-08T11:08:35.458Z,1.80
2024-04-08T11:11:05.171Z,1.20
2024-04-08T11:13:33.193Z,1.40
2024-04-08T11:16:01.180Z,1.30
2024-04-08T11:18:29.253Z,1.90
2024-04-08T11:20:57.380Z,2.30
2024-04-08T11:23:25.595Z,1.40
2024-04-08T11:25:54.355Z,1.10
2024-04-08T11:28:26.763Z,1.60
2024-04-08T11:30:54.733Z,1.10
2024-04-08T11:33:22.844Z,1.80
2024-04-08T11:35:51.251Z,1.10
2024-04-08T11:38:30.187Z,1.30
2024-04-08T11:41:07.679Z,1.70
2024-04-08T11:43:36.690Z,1.30
2024-04-08T11:46:05.633Z,1.20
2024-04-08T11:48:36.366Z,1.40
2024-04-08T11:51:05.263Z,1.10
2024-04-08T11:53:33.583Z,1.30
2024-04-08T11:56:02.197Z,1.40
2024-04-08T11:58:30.389Z,2.40
2024-04-08T12:00:58.768Z,2.20
2024-04-08T12:03:27.044Z,1.70
2024-04-08T12:05:55.152Z,1.20
2024-04-08T12:08:23.794Z,0.90
2024-04-08T12:10:51.801Z,1.10
2024-04-08T12:13:20.431Z,1.10
2024-04-08T12:15:48.636Z,2.00
2024-04-08T12:18:16.677Z,1.30
2024-04-08T12:20:44.730Z,1.40
2024-04-08T12:23:13.013Z,1.30
2024-04-08T12:25:41.129Z,1.10
2024-04-08T12:28:12.610Z,1.50
2024-04-08T12:30:46.248Z,1.90
2024-04-08T12:33:14.985Z,1.60
2024-04-08T12:35:43.434Z,1.60
2024-04-08T12:38:11.641Z,1.00
2024-04-08T12:40:39.621Z,1.80
2024-04-08T12:43:07.822Z,0.90
2024-04-08T12:45:35.896Z,1.00
2024-04-08T12:48:04.227Z,1.00
2024-04-08T12:50:33.795Z,1.50
2024-04-08T12:53:02.524Z,1.00
2024-04-08T12:55:30.589Z,2.10
2024-04-08T12:57:58.677Z,1.20
2024-04-08T13:00:26.893Z,1.00
2024-04-08T13:03:15.722Z,1.10
2024-04-08T13:05:44.216Z,1.30
2024-04-08T13:08:13.873Z,1.10
2024-04-08T13:10:41.918Z,1.30
2024-04-08T13:13:09.925Z,1.50
2024-04-08T13:15:38.179Z,0.80
2024-04-08T13:18:07.406Z,1.30
2024-04-08T13:20:35.407Z,1.20
2024-04-08T13:23:04.098Z,1.00
2024-04-08T13:25:34.807Z,1.00
2024-04-08T13:28:05.091Z,1.20
2024-04-08T13:30:33.161Z,1.70
2024-04-08T13:33:01.291Z,0.90
2024-04-08T13:35:29.391Z,1.20
2024-04-08T13:37:57.461Z,1.90
2024-04-08T13:40:26.481Z,1.40
2024-04-08T13:42:54.469Z,2.20
2024-04-08T13:45:22.477Z,1.70
2024-04-08T13:47:50.544Z,1.50
2024-04-08T13:50:18.579Z,1.90
2024-04-08T13:52:48.683Z,1.10
2024-04-08T13:55:16.725Z,0.90
2024-04-08T13:57:44.738Z,1.20
2024-04-08T14:00:13.334Z,1.70
2024-04-08T14:02:41.445Z,1.00
2024-04-08T14:05:09.819Z,1.20
2024-04-08T14:07:37.757Z,1.20
2024-04-08T14:10:06.089Z,1.20
2024-04-08T14:12:34.131Z,1.50
2024-04-08T14:15:02.308Z,1.10
2024-04-08T14:17:30.310Z,1.00
2024-04-08T14:19:58.242Z,1.20
2024-04-08T14:22:26.331Z,0.90
2024-04-08T14:24:54.385Z,1.30
2024-04-08T14:27:22.396Z,1.00
2024-04-08T14:29:55.811Z,1.10
2024-04-08T14:32:28.130Z,2.00
2024-04-08T14:34:56.642Z,1.30
2024-04-08T14:37:43.269Z,1.20
2024-04-08T14:40:12.939Z,1.20
2024-04-08T14:42:41.020Z,1.40
2024-04-08T14:45:09.072Z,1.30
2024-04-08T14:47:37.169Z,1.40
2024-04-08T14:50:05.516Z,1.30
2024-04-08T14:52:39.839Z,1.00
2024-04-08T14:55:11.818Z,0.90
2024-04-08T14:57:44.669Z,1.50
2024-04-08T15:00:13.091Z,1.60
2024-04-08T15:02:43.056Z,1.40
2024-04-08T15:05:11.752Z,1.30
2024-04-08T15:07:39.705Z,1.20
2024-04-08T15:10:08.181Z,1.10
2024-04-08T15:12:36.285Z,1.60
2024-04-08T15:15:06.730Z,1.40
2024-04-08T15:17:35.174Z,1.40
2024-04-08T15:20:03.222Z,1.10
2024-04-08T15:22:31.572Z,1.50
2024-04-08T15:25:00.009Z,1.30
2024-04-08T15:27:28.362Z,1.40
2024-04-08T15:29:58.816Z,1.30
2024-04-08T15:32:27.052Z,1.60
2024-04-08T15:34:55.189Z,1.00
2024-04-08T15:37:23.134Z,1.20
2024-04-08T15:39:51.564Z,1.30
2024-04-08T15:42:19.635Z,1.10
2024-04-08T15:44:47.846Z,1.30
2024-04-08T15:47:15.783Z,1.10
2024-04-08T15:49:43.746Z,1.70
2024-04-08T15:52:11.702Z,1.80
2024-04-08T15:54:39.738Z,1.80
2024-04-08T15:57:09.843Z,1.50
2024-04-08T15:59:37.941Z,1.70
2024-04-08T16:02:05.887Z,1.70
2024-04-08T16:04:34.159Z,1.60
2024-04-08T16:07:02.348Z,1.30
2024-04-08T16:09:31.851Z,1.70
2024-04-08T16:12:00.154Z,1.80
2024-04-08T16:14:28.236Z,1.50
2024-04-08T16:16:56.386Z,1.40
2024-04-08T16:19:24.344Z,1.50
2024-04-08T16:21:52.308Z,2.70
2024-04-08T16:24:20.217Z,1.90
2024-04-08T16:26:48.241Z,2.00
2024-04-08T16:29:16.210Z,1.60
2024-04-08T16:31:44.129Z,1.80
2024-04-08T16:34:13.877Z,2.10
2024-04-08T16:36:41.945Z,2.20
2024-04-08T16:39:10.571Z,1.80
2024-04-08T16:41:38.591Z,1.40
2024-04-08T16:44:08.095Z,2.10
2024-04-08T16:46:36.383Z,1.80
2024-04-08T16:49:04.358Z,1.90
2024-04-08T16:51:33.131Z,2.00
2024-04-08T16:54:01.247Z,2.30
2024-04-08T16:56:31.756Z,3.20
2024-04-08T16:58:59.731Z,2.20
2024-04-08T17:01:27.712Z,2.70
2024-04-08T17:03:55.822Z,2.70
2024-04-08T17:06:24.183Z,3.20
2024-04-08T17:08:52.612Z,2.80
2024-04-08T17:11:21.056Z,2.80
2024-04-08T17:13:49.320Z,3.00
2024-04-08T17:16:17.243Z,2.30
2024-04-08T17:18:45.515Z,2.50
2024-04-08T17:21:13.634Z,2.60
2024-04-08T17:23:42.818Z,2.40
2024-04-08T17:26:10.852Z,2.50
2024-04-08T17:28:39.922Z,2.80
2024-04-08T17:31:08.629Z,3.20
2024-04-08T17:33:36.881Z,2.50
2024-04-08T17:36:06.152Z,3.40
2024-04-08T17:38:40.806Z,2.50
2024-04-08T17:41:09.639Z,2.70
2024-04-08T17:43:42.011Z,2.50
2024-04-08T17:46:10.202Z,2.50
2024-04-08T17:48:39.248Z,2.30
2024-04-08T17:51:08.438Z,2.90
2024-04-08T17:53:37.211Z,2.40
2024-04-08T17:56:06.470Z,2.60
2024-04-08T17:58:35.222Z,3.60
2024-04-08T18:01:12.830Z,2.10
2024-04-08T18:03:41.508Z,3.00
2024-04-08T18:06:10.870Z,2.40
2024-04-08T18:08:42.374Z,3.30
2024-04-08T18:11:12.889Z,2.60
2024-04-08T18:13:41.367Z,3.70
2024-04-08T18:16:17.215Z,2.80
2024-04-08T18:18:47.176Z,2.60
2024-04-08T18:21:15.740Z,2.80
2024-04-08T18:23:44.413Z,2.50
2024-04-08T18:26:15.442Z,3.30
2024-04-08T18:28:44.467Z,3.50
2024-04-08T18:31:13.236Z,2.60
2024-04-08T18:33:41.927Z,2.90
2024-04-08T18:36:10.199Z,2.40
2024-04-08T18:38:38.213Z,2.90
2024-04-08T18:41:07.504Z,2.60
2024-04-08T18:43:36.717Z,3.10
2024-04-08T18:46:09.548Z,3.20
2024-04-08T18:48:38.182Z,2.70
2024-04-08T18:51:07.288Z,3.70
2024-04-08T18:53:35.213Z,3.10
2024-04-08T18:56:03.949Z,3.10
2024-04-08T18:58:31.972Z,2.80
2024-04-08T19:01:06.636Z,3.30
2024-04-08T19:03:38.159Z,3.20
2024-04-08T19:06:06.870Z,2.70
2024-04-08T19:08:34.923Z,3.00
2024-04-08T19:11:03.210Z,3.30
2024-04-08T19:13:31.186Z,3.00
2024-04-08T19:16:05.361Z,2.90
2024-04-08T19:18:36.460Z,2.80
2024-04-08T19:21:07.793Z,2.90
2024-04-08T19:23:35.982Z,2.40
2024-04-08T19:26:04.530Z,3.10
2024-04-08T19:28:33.545Z,3.20
2024-04-08T19:31:02.736Z,3.00
2024-04-08T19:33:30.764Z,2.40
2024-04-08T19:35:59.716Z,2.60
2024-04-08T19:38:28.192Z,2.80
2024-04-08T19:41:03.487Z,3.20
2024-04-08T19:43:32.072Z,2.60
2024-04-08T19:46:14.669Z,3.20
2024-04-08T19:48:44.676Z,3.10
2024-04-08T19:51:19.982Z,2.70
2024-04-08T19:53:51.847Z,2.80
2024-04-08T19:56:21.737Z,3.20
2024-04-08T19:58:50.148Z,3.40
2024-04-08T20:01:18.181Z,3.20
2024-04-08T20:03:46.619Z,2.60
2024-04-08T20:06:15.143Z,3.40
2024-04-08T20:08:43.394Z,3.10
2024-04-08T20:11:11.653Z,2.80
2024-04-08T20:13:40.259Z,3.00
2024-04-08T20:16:15.999Z,3.20
2024-04-08T20:18:44.466Z,2.80
2024-04-08T20:21:13.174Z,3.30
2024-04-08T20:23:41.417Z,3.10
2024-04-08T20:26:09.826Z,2.50
2024-04-08T20:28:37.819Z,2.50
2024-04-08T20:31:06.660Z,2.50
2024-04-08T20:33:35.211Z,2.70
2024-04-08T20:36:03.283Z,2.70
2024-04-08T20:38:32.086Z,2.40
2024-04-08T20:41:07.025Z,3.10
2024-04-08T20:43:36.030Z,2.40
2024-04-08T20:46:04.401Z,2.30
2024-04-08T20:48:32.740Z,2.70
2024-04-08T20:51:02.085Z,2.50
2024-04-08T20:53:30.560Z,2.40
2024-04-08T20:56:06.617Z,2.40
2024-04-08T20:58:34.707Z,2.30
2024-04-08T21:01:09.008Z,2.60
2024-04-08T21:03:38.035Z,2.60
2024-04-08T21:06:08.252Z,2.80
2024-04-08T21:08:43.606Z,2.50
2024-04-08T21:11:12.965Z,2.20
2024-04-08T21:13:41.458Z,2.60
2024-04-08T21:16:09.585Z,2.20
2024-04-08T21:18:38.124Z,2.50
2024-04-08T21:21:07.154Z,2.60
2024-04-08T21:23:35.748Z,2.50
2024-04-08T21:26:10.081Z,2.10
2024-04-08T21:28:38.516Z,2.70
2024-04-08T21:31:07.299Z,2.50
2024-04-08T21:33:35.504Z,2.50
2024-04-08T21:36:04.242Z,2.40
2024-04-08T21:38:32.270Z,3.00
2024-04-08T21:41:01.702Z,2.70
2024-04-08T21:43:29.739Z,2.50
2024-04-08T21:45:59.527Z,2.00
2024-04-08T21:48:27.658Z,2.30
2024-04-08T21:50:56.441Z,2.60
2024-04-08T21:53:27.943Z,2.90
2024-04-08T21:55:57.481Z,3.10
2024-04-08T21:58:25.730Z,2.30
2024-04-08T22:00:56.274Z,3.80
2024-04-08T22:03:27.758Z,2.40
2024-04-08T22:05:56.048Z,2.30
2024-04-08T22:08:24.410Z,3.40
2024-04-08T22:10:52.567Z,2.30
2024-04-08T22:13:20.576Z,2.50
2024-04-08T22:15:48.572Z,2.60
2024-04-08T22:18:18.062Z,2.40
2024-04-08T22:20:47.629Z,2.70
2024-04-08T22:23:15.699Z,2.30
2024-04-08T22:25:43.652Z,3.40
2024-04-08T22:28:11.617Z,2.70
2024-04-08T22:30:40.968Z,2.60
2024-04-08T22:33:09.255Z,2.90
2024-04-08T22:35:37.571Z,2.20
2024-04-08T22:38:05.552Z,2.60
2024-04-08T22:40:33.585Z,2.10
2024-04-08T22:43:01.558Z,2.40
2024-04-08T22:45:29.588Z,2.60
2024-04-08T22:47:57.736Z,2.60
2024-04-08T22:50:25.797Z,2.40
2024-04-08T22:52:53.803Z,2.60
2024-04-08T22:55:21.916Z,2.30
2024-04-08T22:57:49.901Z,2.10
2024-04-08T23:00:17.936Z,2.20
2024-04-08T23:02:47.315Z,2.40
2024-04-08T23:05:15.889Z,2.30
2024-04-08T23:07:43.890Z,2.30
2024-04-08T23:10:12.221Z,2.40
2024-04-08T23:12:42.863Z,2.60
2024-04-08T23:15:10.930Z,2.80
2024-04-08T23:17:39.119Z,2.90
2024-04-08T23:20:07.979Z,2.60
2024-04-08T23:22:35.937Z,2.30
2024-04-08T23:25:04.316Z,2.40
2024-04-08T23:27:32.426Z,1.80
2024-04-08T23:30:00.477Z,2.90
2024-04-08T23:32:28.589Z,2.50
2024-04-08T23:34:57.190Z,2.20
2024-04-08T23:37:25.314Z,2.10
2024-04-08T23:39:53.277Z,2.40
2024-04-08T23:42:21.273Z,2.40
2024-04-08T23:44:49.582Z,2.00
2024-04-08T23:47:17.601Z,1.90
2024-04-08T23:49:45.623Z,2.50
2024-04-08T23:52:13.591Z,2.50
2024-04-08T23:54:41.616Z,2.40
2024-04-08T23:57:09.672Z,1.90
2024-04-08T23:59:37.995Z,2.30
